Buoy 51819

sailwx.info

Track history (hours):
 
Tides and Currents Weather Stations Pressure Air Temp Water Temp Dewpoint Dewpoint Depression Visibility Wind Speed Wind Dir Waves Ship Positions

Min Pu Yu 51819

Last reported at 2017-Nov-23 02:00 UTC. Time now 2017-Nov-23 03:26 UTC.
Position N 07°11' W 091°07'.

Length 26 m.

Type: Fishing. MMSI: 412448202.

Air temperature -0.0 ° C
Water temperature 27.8 ° C

Date/timePositionNaut miles runAvg speedWind from/ knotsBaromVisibWave heightAir tempDewpointWater temp
2017-Nov-23 02:00N 07°11' W 091°07'0 0.0 -0.0 27.8
2017-Nov-23 01:30N 07°11' W 091°07'1 1.7 -0.0 27.8
2017-Nov-23 01:00N 07°11' W 091°08'0 0.0 -0.0 27.8
2017-Nov-23 00:30N 07°11' W 091°08'1 0.6 -0.0 27.8
2017-Nov-22 23:30N 07°11' W 091°08'1 1.3 -0.0 27.8
2017-Nov-22 22:30N 07°10' W 091°10'1 0.8 -0.0 27.9
2017-Nov-22 21:30N 07°10' W 091°10'2 0.8 -0.0 27.9
2017-Nov-22 19:30N 07°08' W 091°11'1 1.2 -0.0 27.9
2017-Nov-22 19:00N 07°08' W 091°11'2 0.6 -0.0 27.8
2017-Nov-22 16:00N 07°07' W 091°13'1 1.7 -0.0 27.7
2017-Nov-22 15:30N 07°06' W 091°13'0 0.0 -0.0 27.7
2017-Nov-22 15:00N 07°06' W 091°13'1 1.7 -0.0 27.7
2017-Nov-22 14:30N 07°05' W 091°14'1 0.6 -0.0 27.7
2017-Nov-22 13:30N 07°05' W 091°14'1 0.6 -0.0 27.7
2017-Nov-22 12:30N 07°05' W 091°14'1 1.2 -0.0 27.7
2017-Nov-22 12:00N 07°05' W 091°15'1 0.8 -0.0 27.7
2017-Nov-22 11:00N 07°04' W 091°16'1 1.7 -0.0 27.7
2017-Nov-22 10:30N 07°04' W 091°16'1 0.6 -0.0 27.7
2017-Nov-22 09:30N 07°03' W 091°16'6 0.9 -0.0 27.8
2017-Nov-22 02:30N 06°58' W 091°20'0 0.0 -0.0 27.9
2017-Nov-22 02:00N 06°58' W 091°20'1 1.2 -0.0 27.9
2017-Nov-22 01:30N 06°57' W 091°20'1 1.2 -0.0 27.9
2017-Nov-22 01:00N 06°56' W 091°20'1 1.2 -0.0 27.9
2017-Nov-22 00:30N 06°56' W 091°20'1 0.9 -0.0 27.9
2017-Nov-21 23:00N 06°55' W 091°21'1 0.6 -0.0 28.0
2017-Nov-21 22:00N 06°55' W 091°21'1 1.7 -0.0 28.0
2017-Nov-21 21:30N 06°54' W 091°22'1 0.8 -0.0 28.0
2017-Nov-21 20:00N 06°53' W 091°22'1 0.8 -0.0 28.1
2017-Nov-21 19:00N 06°52' W 091°22'2 0.8 -0.0 28.1
2017-Nov-21 16:00N 06°50' W 091°23'1 1.2 -0.0 27.7
2017-Nov-21 15:30N 06°49' W 091°23'0 0.0 -0.0 27.7
2017-Nov-21 15:00N 06°49' W 091°23'1 0.6 -0.0 27.7
2017-Nov-21 14:00N 06°49' W 091°23'1 1.2 -0.0 27.6
2017-Nov-21 13:30N 06°48' W 091°23'0 0.0 -0.0 27.6
2017-Nov-21 13:00N 06°48' W 091°23'0 0.0 -0.0 27.6
2017-Nov-21 12:30N 06°48' W 091°23'1 1.2 -0.0 27.6
2017-Nov-21 12:00N 06°47' W 091°23'1 0.6 -0.0 27.6
2017-Nov-21 11:00N 06°47' W 091°22'1 1.2 -0.0 27.6
2017-Nov-21 10:30N 06°47' W 091°22'0 0.0 -0.0 27.6
2017-Nov-21 10:00N 06°47' W 091°22'1 1.2 -0.0 27.6
2017-Nov-21 09:30N 06°47' W 091°23'1 1.2 -0.0 27.6
2017-Nov-21 09:00N 06°46' W 091°23'1 0.6 -0.0 27.7
2017-Nov-21 08:00N 06°46' W 091°23'2 0.5 -0.0 27.7
2017-Nov-21 04:00N 06°44' W 091°23'1 0.6 -0.0 27.8
2017-Nov-21 03:00N 06°44' W 091°24'1 1.2 -0.0 27.8
2017-Nov-21 02:30N 06°43' W 091°24'1 0.6 -0.0 27.8
2017-Nov-21 01:30N 06°43' W 091°23'0 0.0 -0.0 27.8
2017-Nov-21 01:00N 06°43' W 091°23'0 0.0 -0.0 27.9
2017-Nov-21 00:30N 06°43' W 091°23'1 1.2 -0.0 27.9
2017-Nov-21 00:00N 06°43' W 091°23'1 1.2 -0.0 27.9
2017-Nov-20 23:30N 06°43' W 091°23'0 0.0 -0.0 27.9
2017-Nov-20 22:00N 06°43' W 091°23'0 0.0 -0.0 28.1
2017-Nov-20 21:00N 06°43' W 091°23'1 0.4 -0.0 28.0
2017-Nov-20 19:00N 06°42' W 091°23'1 0.4 -0.0 27.9
2017-Nov-20 17:00N 06°41' W 091°24'1 0.6 -0.0 27.8
2017-Nov-20 16:00N 06°41' W 091°25'1 0.4 -0.0 27.7
2017-Nov-20 14:00N 06°41' W 091°25'1 1.7 -0.0 27.6
2017-Nov-20 13:30N 06°40' W 091°26'0 0.0 -0.0 27.6
2017-Nov-20 13:00N 06°40' W 091°26'1 1.2 -0.0 27.6
2017-Nov-20 12:30N 06°40' W 091°26'0 0.0 -0.0 27.5
2017-Nov-20 12:00N 06°40' W 091°26'1 0.6 -0.0 27.6
2017-Nov-20 11:00N 06°39' W 091°26'1 0.8 -0.0 27.6
2017-Nov-20 10:00N 06°38' W 091°26'1 1.2 -0.0 27.6
2017-Nov-20 09:00N 06°37' W 091°26'1 0.8 -0.0 27.6
2017-Nov-20 08:00N 06°37' W 091°27'3 0.8 -0.0 27.6
2017-Nov-20 04:30N 06°34' W 091°28'1 1.3 -0.0 27.7
2017-Nov-20 03:30N 06°33' W 091°29'1 0.6 -0.0 27.7
2017-Nov-20 02:30N 06°33' W 091°29'1 0.8 -0.0 27.7
2017-Nov-20 01:30N 06°32' W 091°30'1 1.2 -0.0 27.8
2017-Nov-20 01:00N 06°32' W 091°30'1 1.2 -0.0 27.8
2017-Nov-20 00:30N 06°31' W 091°30'0 0.0 -0.0 27.8
2017-Nov-20 00:00N 06°31' W 091°30'1 0.6 -0.0 27.8
2017-Nov-19 23:00N 06°31' W 091°30'0 0.0 -0.0 27.8
2017-Nov-19 22:30N 06°31' W 091°30'0 0.0 -0.0 27.8
2017-Nov-19 22:00N 06°31' W 091°30'1 0.8 -0.0 27.9
2017-Nov-19 21:00N 06°30' W 091°31'1 1.2 -0.0 28.0
2017-Nov-19 20:30N 06°29' W 091°31'2 0.5 -0.0 28.1
2017-Nov-19 16:30N 06°28' W 091°31'1 0.6 -0.0 27.6
2017-Nov-19 15:30N 06°27' W 091°31'1 0.6 -0.0 27.5
2017-Nov-19 14:00N 06°26' W 091°32'0 0.0 -0.0 27.4
2017-Nov-19 13:30N 06°26' W 091°32'0 0.0 -0.0 27.5
2017-Nov-19 13:00N 06°26' W 091°32'0 0.0 -0.0 27.5
2017-Nov-19 12:00N 06°26' W 091°32'1 0.4 -0.0 27.6
2017-Nov-19 10:00N 06°26' W 091°32'0 0.0 -0.0 27.6
2017-Nov-19 09:00N 06°26' W 091°32'0 0.0 -0.0 27.6
2017-Nov-19 08:00N 06°26' W 091°32'1 0.3 -0.0 27.6
2017-Nov-19 04:00N 06°26' W 091°34'1 0.8 -0.0 27.6
2017-Nov-19 03:00N 06°26' W 091°34'1 0.6 -0.0 27.7
2017-Nov-19 02:00N 06°26' W 091°35'1 0.6 -0.0 27.7
2017-Nov-19 01:00N 06°26' W 091°35'1 0.8 -0.0 27.7
2017-Nov-19 00:00N 06°27' W 091°36'0 0.0 -0.0 27.8
2017-Nov-18 23:30N 06°27' W 091°36'1 1.2 -0.0 27.8
2017-Nov-18 23:00N 06°27' W 091°37'1 1.2 -0.0 27.8
2017-Nov-18 22:30N 06°28' W 091°37'1 1.2 -0.0 27.9
2017-Nov-18 22:00N 06°28' W 091°37'0 0.0 -0.0 27.9
2017-Nov-18 21:30N 06°28' W 091°37'0 0.0 -0.0 27.9
2017-Nov-18 21:00N 06°28' W 091°37'1 1.7 -0.0 27.9
2017-Nov-18 20:30N 06°28' W 091°38'2 0.5 -0.0 27.9
2017-Nov-18 17:00N 06°28' W 091°40'1 0.6 -0.0 27.7
2017-Nov-18 15:00N 06°28' W 091°41'1 0.8 -0.0 27.5
2017-Nov-18 14:00N 06°29' W 091°41'1 1.2 -0.0 27.5
2017-Nov-18 13:30N 06°29' W 091°42'0 0.0 -0.0 27.5
2017-Nov-18 13:00N 06°29' W 091°42'1 0.6 -0.0 27.5
2017-Nov-18 12:00N 06°29' W 091°43'1 1.2 -0.0 27.5
2017-Nov-18 11:30N 06°29' W 091°43'0 0.0 -0.0 27.5
2017-Nov-18 11:00N 06°29' W 091°43'1 0.8 -0.0 27.5
2017-Nov-18 10:00N 06°29' W 091°44'1 1.2 -0.0 27.5
2017-Nov-18 09:30N 06°29' W 091°44'5 0.8 -0.0 27.5
2017-Nov-18 03:00N 06°28' W 091°50'1 1.2 -0.0 27.6
2017-Nov-18 02:30N 06°28' W 091°50'1 0.6 -0.0 27.6
2017-Nov-18 01:30N 06°28' W 091°50'1 0.6 -0.0 27.6
2017-Nov-18 00:30N 06°28' W 091°51'0 0.0 -0.0 27.6
2017-Nov-18 00:00N 06°28' W 091°51'1 1.2 -0.0 27.6
2017-Nov-17 23:30N 06°28' W 091°52'1 1.2 -0.0 27.6
2017-Nov-17 23:00N 06°28' W 091°52'0 0.0 -0.0 27.6
2017-Nov-17 22:30N 06°28' W 091°52'1 1.2 -0.0 27.6
2017-Nov-17 22:00N 06°28' W 091°53'1 1.2 -0.0 27.6
2017-Nov-17 21:00N 06°28' W 091°54'1 1.2 -0.0 27.6
2017-Nov-17 20:00N 06°28' W 091°55'4 0.9 -0.0 27.7
2017-Nov-17 15:30N 06°27' W 091°59'1 0.6 -0.0 27.5
2017-Nov-17 14:30N 06°27' W 092°00'1 0.6 -0.0 27.4
2017-Nov-17 13:30N 06°27' W 092°01'0 0.0 -0.0 27.4
2017-Nov-17 13:00N 06°27' W 092°01'1 1.2 -0.0 27.5
2017-Nov-17 12:30N 06°27' W 092°01'0 0.0 -0.0 27.4
2017-Nov-17 12:00N 06°27' W 092°01'1 0.6 -0.0 27.4
2017-Nov-17 11:00N 06°27' W 092°02'1 1.2 -0.0 27.5
2017-Nov-17 10:00N 06°27' W 092°03'1 1.2 -0.0 27.5
2017-Nov-17 09:30N 06°26' W 092°03'2 1.0 -0.0 27.5
2017-Nov-17 07:00N 06°27' W 092°05'2 1.0 -0.0 27.5
2017-Nov-17 04:30N 06°28' W 092°08'1 0.5 -0.0 27.5
2017-Nov-17 02:00N 06°28' W 092°09'1 1.2 -0.0 27.6
2017-Nov-17 01:30N 06°28' W 092°10'1 1.2 -0.0 27.6
2017-Nov-17 01:00N 06°28' W 092°10'0 0.0 -0.0 27.6
2017-Nov-17 00:00N 06°28' W 092°10'1 1.2 -0.0 27.6
2017-Nov-16 23:30N 06°28' W 092°11'0 0.0 -0.0 27.6
2017-Nov-16 23:00N 06°28' W 092°11'1 1.2 -0.0 27.6
2017-Nov-16 22:30N 06°28' W 092°11'1 0.9 -0.0 27.6
2017-Nov-16 21:00N 06°28' W 092°13'1 0.8 -0.0 27.6
2017-Nov-16 20:00N 06°29' W 092°13'4 1.1 -0.0 27.6
2017-Nov-16 16:00N 06°29' W 092°17'1 1.3 -0.0 27.6
2017-Nov-16 15:00N 06°30' W 092°19'1 1.7 -0.0 27.6
2017-Nov-16 14:30N 06°31' W 092°19'1 1.7 -0.0 27.6
2017-Nov-16 14:00N 06°31' W 092°20'1 1.2 -0.0 27.5
2017-Nov-16 13:30N 06°31' W 092°20'1 1.7 -0.0 27.5
2017-Nov-16 13:00N 06°32' W 092°21'0 0.0 -0.0 27.6
2017-Nov-16 12:30N 06°32' W 092°21'2 1.7 -0.0 27.6
2017-Nov-16 11:30N 06°33' W 092°22'2 1.4 -0.0 27.6
2017-Nov-16 10:00N 06°34' W 092°24'3 1.1 -0.0 27.6
2017-Nov-16 07:00N 06°35' W 092°27'4 1.3 -0.0 27.6
2017-Nov-16 04:00N 06°38' W 092°30'1 1.2 -0.0 27.7
2017-Nov-16 03:30N 06°38' W 092°31'1 1.3 -0.0 27.7
2017-Nov-16 02:30N 06°38' W 092°32'2 1.7 -0.0 27.7
2017-Nov-16 01:30N 06°40' W 092°33'1 1.7 -0.0 27.7
2017-Nov-16 01:00N 06°40' W 092°34'3 1.5 -0.0 27.7
2017-Nov-15 23:00N 06°42' W 092°36'1 1.3 -0.0 27.7
2017-Nov-15 22:00N 06°43' W 092°37'2 1.7 -0.0 27.8
2017-Nov-15 21:00N 06°44' W 092°38'1 1.3 -0.0 27.8
2017-Nov-15 20:00N 06°44' W 092°40'6 1.8 -0.0 27.8
2017-Nov-15 16:30N 06°48' W 092°45'1 1.3 -0.0 27.8
2017-Nov-15 15:30N 06°49' W 092°46'2 1.9 -0.0 27.8
2017-Nov-15 14:30N 06°49' W 092°48'2 1.4 -0.0 27.8
2017-Nov-15 13:00N 06°50' W 092°50'1 1.3 -0.0 27.8
2017-Nov-15 12:00N 06°51' W 092°51'1 1.3 -0.0 27.8
2017-Nov-15 11:00N 06°52' W 092°52'1 1.7 -0.0 27.8
2017-Nov-15 10:30N 06°52' W 092°53'1 1.7 -0.0 27.8
2017-Nov-15 10:00N 06°53' W 092°53'2 1.4 -0.0 27.9
2017-Nov-15 08:30N 06°54' W 092°55'3 1.7 -0.0 27.9
2017-Nov-15 07:00N 06°56' W 092°57'4 1.7 -0.0 27.9
2017-Nov-15 04:30N 06°58' W 093°01'2 1.9 -0.0 27.9
2017-Nov-15 03:30N 06°59' W 093°02'2 2.2 -0.0 27.9
2017-Nov-15 02:30N 07°00' W 093°04'1 2.4 -0.0 27.9
2017-Nov-15 02:00N 07°00' W 093°05'2 1.7 -0.0 27.9
2017-Nov-15 01:00N 07°01' W 093°07'1 1.2 -0.0 27.9
2017-Nov-15 00:30N 07°01' W 093°07'1 2.7 -0.0 27.9
2017-Nov-15 00:00N 07°02' W 093°08'1 1.7 -0.0 27.9
2017-Nov-14 23:30N 07°02' W 093°09'1 1.2 -0.0 27.9
2017-Nov-14 23:00N 07°02' W 093°10'2 2.2 -0.0 27.9
2017-Nov-14 22:00N 07°04' W 093°11'1 1.2 -0.0 27.9
2017-Nov-14 21:30N 07°04' W 093°12'8 1.6 -0.0 27.9
2017-Nov-14 16:30N 07°07' W 093°19'1 1.3 -0.0 27.8
2017-Nov-14 15:30N 07°08' W 093°20'1 1.7 -0.0 27.8
2017-Nov-14 15:00N 07°08' W 093°21'1 1.3 -0.0 27.8
2017-Nov-14 14:00N 07°09' W 093°22'1 1.3 -0.0 27.8
2017-Nov-14 13:00N 07°10' W 093°23'1 1.7 -0.0 27.9
2017-Nov-14 12:30N 07°10' W 093°24'1 1.3 -0.0 27.9
2017-Nov-14 11:30N 07°11' W 093°25'1 1.7 -0.0 27.9
2017-Nov-14 11:00N 07°11' W 093°26'2 1.9 -0.0 27.9
2017-Nov-14 10:00N 07°12' W 093°28'2 1.7 -0.0 27.9
2017-Nov-14 09:00N 07°13' W 093°29'5 1.3 -0.0 27.9
2017-Nov-14 05:00N 07°16' W 093°33'2 1.9 -0.0 27.9
2017-Nov-14 04:00N 07°17' W 093°35'1 1.3 -0.0 27.9
2017-Nov-14 03:00N 07°17' W 093°36'1 1.2 -0.0 27.9
2017-Nov-14 02:30N 07°17' W 093°37'1 1.7 -0.0 27.9
2017-Nov-14 02:00N 07°18' W 093°37'2 1.8 -0.0 28.0
2017-Nov-14 01:00N 07°18' W 093°39'1 1.7 -0.0 27.9
2017-Nov-14 00:30N 07°19' W 093°40'1 1.2 -0.0 27.9
2017-Nov-14 00:00N 07°19' W 093°40'1 1.3 -0.0 28.0
2017-Nov-13 23:00N 07°19' W 093°41'2 1.1 -0.0 27.9
2017-Nov-13 21:30N 07°20' W 093°43'2 1.1 -0.0 28.0
2017-Nov-13 20:00N 07°22' W 093°44'1 1.3 -0.0 28.0
2017-Nov-13 19:00N 07°22' W 093°45'5 1.5 -0.0 28.0
2017-Nov-13 16:00N 07°24' W 093°49'2 1.1 -0.0 27.9
2017-Nov-13 14:00N 07°25' W 093°51'1 1.7 -0.0 27.9
2017-Nov-13 13:30N 07°26' W 093°52'1 1.2 -0.0 27.9
2017-Nov-13 13:00N 07°26' W 093°52'2 1.1 -0.0 27.9
2017-Nov-13 11:30N 07°27' W 093°53'2 1.7 -0.0 27.9
2017-Nov-13 10:30N 07°28' W 093°55'1 0.8 -0.0 28.0
2017-Nov-13 09:30N 07°29' W 093°55'1 1.3 -0.0 28.0
2017-Nov-13 08:30N 07°29' W 093°56'5 1.3 -0.0 28.0
2017-Nov-13 05:00N 07°33' W 093°59'1 1.2 -0.0 28.1
2017-Nov-13 04:30N 07°33' W 094°00'1 1.7 -0.0 28.1
2017-Nov-13 04:00N 07°34' W 094°01'1 1.7 -0.0 28.2
2017-Nov-13 03:30N 07°34' W 094°01'1 1.3 -0.0 28.2
2017-Nov-13 02:30N 07°35' W 094°02'   -0.0 28.2
Track history (hours):
 
Tides and Currents Weather Stations Pressure Air Temp Water Temp Dewpoint Dewpoint Depression Visibility Wind Speed Wind Dir Waves Ship Positions

Min Pu Yu 51819

Last reported at 2017-Nov-23 02:00 UTC. Time now 2017-Nov-23 03:26 UTC.
Position N 07°11' W 091°07'.

Length 26 m.

Type: Fishing. MMSI: 412448202.

Air temperature -0.0 ° C
Water temperature 27.8 ° C

Date/timePositionNaut miles runAvg speedWind from/ knotsBaromVisibWave heightAir tempDewpointWater temp
2017-Nov-23 02:00N 07°11' W 091°07'0 0.0 -0.0 27.8
2017-Nov-23 01:30N 07°11' W 091°07'1 1.7 -0.0 27.8
2017-Nov-23 01:00N 07°11' W 091°08'0 0.0 -0.0 27.8
2017-Nov-23 00:30N 07°11' W 091°08'1 0.6 -0.0 27.8
2017-Nov-22 23:30N 07°11' W 091°08'1 1.3 -0.0 27.8
2017-Nov-22 22:30N 07°10' W 091°10'1 0.8 -0.0 27.9
2017-Nov-22 21:30N 07°10' W 091°10'2 0.8 -0.0 27.9
2017-Nov-22 19:30N 07°08' W 091°11'1 1.2 -0.0 27.9
2017-Nov-22 19:00N 07°08' W 091°11'2 0.6 -0.0 27.8
2017-Nov-22 16:00N 07°07' W 091°13'1 1.7 -0.0 27.7
2017-Nov-22 15:30N 07°06' W 091°13'0 0.0 -0.0 27.7
2017-Nov-22 15:00N 07°06' W 091°13'1 1.7 -0.0 27.7
2017-Nov-22 14:30N 07°05' W 091°14'1 0.6 -0.0 27.7
2017-Nov-22 13:30N 07°05' W 091°14'1 0.6 -0.0 27.7
2017-Nov-22 12:30N 07°05' W 091°14'1 1.2 -0.0 27.7
2017-Nov-22 12:00N 07°05' W 091°15'1 0.8 -0.0 27.7
2017-Nov-22 11:00N 07°04' W 091°16'1 1.7 -0.0 27.7
2017-Nov-22 10:30N 07°04' W 091°16'1 0.6 -0.0 27.7
2017-Nov-22 09:30N 07°03' W 091°16'6 0.9 -0.0 27.8
2017-Nov-22 02:30N 06°58' W 091°20'0 0.0 -0.0 27.9
2017-Nov-22 02:00N 06°58' W 091°20'1 1.2 -0.0 27.9
2017-Nov-22 01:30N 06°57' W 091°20'1 1.2 -0.0 27.9
2017-Nov-22 01:00N 06°56' W 091°20'1 1.2 -0.0 27.9
2017-Nov-22 00:30N 06°56' W 091°20'1 0.9 -0.0 27.9
2017-Nov-21 23:00N 06°55' W 091°21'1 0.6 -0.0 28.0
2017-Nov-21 22:00N 06°55' W 091°21'1 1.7 -0.0 28.0
2017-Nov-21 21:30N 06°54' W 091°22'1 0.8 -0.0 28.0
2017-Nov-21 20:00N 06°53' W 091°22'1 0.8 -0.0 28.1
2017-Nov-21 19:00N 06°52' W 091°22'2 0.8 -0.0 28.1
2017-Nov-21 16:00N 06°50' W 091°23'1 1.2 -0.0 27.7
2017-Nov-21 15:30N 06°49' W 091°23'0 0.0 -0.0 27.7
2017-Nov-21 15:00N 06°49' W 091°23'1 0.6 -0.0 27.7
2017-Nov-21 14:00N 06°49' W 091°23'1 1.2 -0.0 27.6
2017-Nov-21 13:30N 06°48' W 091°23'0 0.0 -0.0 27.6
2017-Nov-21 13:00N 06°48' W 091°23'0 0.0 -0.0 27.6
2017-Nov-21 12:30N 06°48' W 091°23'1 1.2 -0.0 27.6
2017-Nov-21 12:00N 06°47' W 091°23'1 0.6 -0.0 27.6
2017-Nov-21 11:00N 06°47' W 091°22'1 1.2 -0.0 27.6
2017-Nov-21 10:30N 06°47' W 091°22'0 0.0 -0.0 27.6
2017-Nov-21 10:00N 06°47' W 091°22'1 1.2 -0.0 27.6
2017-Nov-21 09:30N 06°47' W 091°23'1 1.2 -0.0 27.6
2017-Nov-21 09:00N 06°46' W 091°23'1 0.6 -0.0 27.7
2017-Nov-21 08:00N 06°46' W 091°23'2 0.5 -0.0 27.7
2017-Nov-21 04:00N 06°44' W 091°23'1 0.6 -0.0 27.8
2017-Nov-21 03:00N 06°44' W 091°24'1 1.2 -0.0 27.8
2017-Nov-21 02:30N 06°43' W 091°24'1 0.6 -0.0 27.8
2017-Nov-21 01:30N 06°43' W 091°23'0 0.0 -0.0 27.8
2017-Nov-21 01:00N 06°43' W 091°23'0 0.0 -0.0 27.9
2017-Nov-21 00:30N 06°43' W 091°23'1 1.2 -0.0 27.9
2017-Nov-21 00:00N 06°43' W 091°23'1 1.2 -0.0 27.9
2017-Nov-20 23:30N 06°43' W 091°23'0 0.0 -0.0 27.9
2017-Nov-20 22:00N 06°43' W 091°23'0 0.0 -0.0 28.1
2017-Nov-20 21:00N 06°43' W 091°23'1 0.4 -0.0 28.0
2017-Nov-20 19:00N 06°42' W 091°23'1 0.4 -0.0 27.9
2017-Nov-20 17:00N 06°41' W 091°24'1 0.6 -0.0 27.8
2017-Nov-20 16:00N 06°41' W 091°25'1 0.4 -0.0 27.7
2017-Nov-20 14:00N 06°41' W 091°25'1 1.7 -0.0 27.6
2017-Nov-20 13:30N 06°40' W 091°26'0 0.0 -0.0 27.6
2017-Nov-20 13:00N 06°40' W 091°26'1 1.2 -0.0 27.6
2017-Nov-20 12:30N 06°40' W 091°26'0 0.0 -0.0 27.5
2017-Nov-20 12:00N 06°40' W 091°26'1 0.6 -0.0 27.6
2017-Nov-20 11:00N 06°39' W 091°26'1 0.8 -0.0 27.6
2017-Nov-20 10:00N 06°38' W 091°26'1 1.2 -0.0 27.6
2017-Nov-20 09:00N 06°37' W 091°26'1 0.8 -0.0 27.6
2017-Nov-20 08:00N 06°37' W 091°27'3 0.8 -0.0 27.6
2017-Nov-20 04:30N 06°34' W 091°28'1 1.3 -0.0 27.7
2017-Nov-20 03:30N 06°33' W 091°29'1 0.6 -0.0 27.7
2017-Nov-20 02:30N 06°33' W 091°29'1 0.8 -0.0 27.7
2017-Nov-20 01:30N 06°32' W 091°30'1 1.2 -0.0 27.8
2017-Nov-20 01:00N 06°32' W 091°30'1 1.2 -0.0 27.8
2017-Nov-20 00:30N 06°31' W 091°30'0 0.0 -0.0 27.8
2017-Nov-20 00:00N 06°31' W 091°30'1 0.6 -0.0 27.8
2017-Nov-19 23:00N 06°31' W 091°30'0 0.0 -0.0 27.8
2017-Nov-19 22:30N 06°31' W 091°30'0 0.0 -0.0 27.8
2017-Nov-19 22:00N 06°31' W 091°30'1 0.8 -0.0 27.9
2017-Nov-19 21:00N 06°30' W 091°31'1 1.2 -0.0 28.0
2017-Nov-19 20:30N 06°29' W 091°31'2 0.5 -0.0 28.1
2017-Nov-19 16:30N 06°28' W 091°31'1 0.6 -0.0 27.6
2017-Nov-19 15:30N 06°27' W 091°31'1 0.6 -0.0 27.5
2017-Nov-19 14:00N 06°26' W 091°32'0 0.0 -0.0 27.4
2017-Nov-19 13:30N 06°26' W 091°32'0 0.0 -0.0 27.5
2017-Nov-19 13:00N 06°26' W 091°32'0 0.0 -0.0 27.5
2017-Nov-19 12:00N 06°26' W 091°32'1 0.4 -0.0 27.6
2017-Nov-19 10:00N 06°26' W 091°32'0 0.0 -0.0 27.6
2017-Nov-19 09:00N 06°26' W 091°32'0 0.0 -0.0 27.6
2017-Nov-19 08:00N 06°26' W 091°32'1 0.3 -0.0 27.6
2017-Nov-19 04:00N 06°26' W 091°34'1 0.8 -0.0 27.6
2017-Nov-19 03:00N 06°26' W 091°34'1 0.6 -0.0 27.7
2017-Nov-19 02:00N 06°26' W 091°35'1 0.6 -0.0 27.7
2017-Nov-19 01:00N 06°26' W 091°35'1 0.8 -0.0 27.7
2017-Nov-19 00:00N 06°27' W 091°36'0 0.0 -0.0 27.8
2017-Nov-18 23:30N 06°27' W 091°36'1 1.2 -0.0 27.8
2017-Nov-18 23:00N 06°27' W 091°37'1 1.2 -0.0 27.8
2017-Nov-18 22:30N 06°28' W 091°37'1 1.2 -0.0 27.9
2017-Nov-18 22:00N 06°28' W 091°37'0 0.0 -0.0 27.9
2017-Nov-18 21:30N 06°28' W 091°37'0 0.0 -0.0 27.9
2017-Nov-18 21:00N 06°28' W 091°37'1 1.7 -0.0 27.9
2017-Nov-18 20:30N 06°28' W 091°38'2 0.5 -0.0 27.9
2017-Nov-18 17:00N 06°28' W 091°40'1 0.6 -0.0 27.7
2017-Nov-18 15:00N 06°28' W 091°41'1 0.8 -0.0 27.5
2017-Nov-18 14:00N 06°29' W 091°41'1 1.2 -0.0 27.5
2017-Nov-18 13:30N 06°29' W 091°42'0 0.0 -0.0 27.5
2017-Nov-18 13:00N 06°29' W 091°42'1 0.6 -0.0 27.5
2017-Nov-18 12:00N 06°29' W 091°43'1 1.2 -0.0 27.5
2017-Nov-18 11:30N 06°29' W 091°43'0 0.0 -0.0 27.5
2017-Nov-18 11:00N 06°29' W 091°43'1 0.8 -0.0 27.5
2017-Nov-18 10:00N 06°29' W 091°44'1 1.2 -0.0 27.5
2017-Nov-18 09:30N 06°29' W 091°44'5 0.8 -0.0 27.5
2017-Nov-18 03:00N 06°28' W 091°50'1 1.2 -0.0 27.6
2017-Nov-18 02:30N 06°28' W 091°50'1 0.6 -0.0 27.6
2017-Nov-18 01:30N 06°28' W 091°50'1 0.6 -0.0 27.6
2017-Nov-18 00:30N 06°28' W 091°51'0 0.0 -0.0 27.6
2017-Nov-18 00:00N 06°28' W 091°51'1 1.2 -0.0 27.6
2017-Nov-17 23:30N 06°28' W 091°52'1 1.2 -0.0 27.6
2017-Nov-17 23:00N 06°28' W 091°52'0 0.0 -0.0 27.6
2017-Nov-17 22:30N 06°28' W 091°52'1 1.2 -0.0 27.6
2017-Nov-17 22:00N 06°28' W 091°53'1 1.2 -0.0 27.6
2017-Nov-17 21:00N 06°28' W 091°54'1 1.2 -0.0 27.6
2017-Nov-17 20:00N 06°28' W 091°55'4 0.9 -0.0 27.7
2017-Nov-17 15:30N 06°27' W 091°59'1 0.6 -0.0 27.5
2017-Nov-17 14:30N 06°27' W 092°00'1 0.6 -0.0 27.4
2017-Nov-17 13:30N 06°27' W 092°01'0 0.0 -0.0 27.4
2017-Nov-17 13:00N 06°27' W 092°01'1 1.2 -0.0 27.5
2017-Nov-17 12:30N 06°27' W 092°01'0 0.0 -0.0 27.4
2017-Nov-17 12:00N 06°27' W 092°01'1 0.6 -0.0 27.4
2017-Nov-17 11:00N 06°27' W 092°02'1 1.2 -0.0 27.5
2017-Nov-17 10:00N 06°27' W 092°03'1 1.2 -0.0 27.5
2017-Nov-17 09:30N 06°26' W 092°03'2 1.0 -0.0 27.5
2017-Nov-17 07:00N 06°27' W 092°05'2 1.0 -0.0 27.5
2017-Nov-17 04:30N 06°28' W 092°08'1 0.5 -0.0 27.5
2017-Nov-17 02:00N 06°28' W 092°09'1 1.2 -0.0 27.6
2017-Nov-17 01:30N 06°28' W 092°10'1 1.2 -0.0 27.6
2017-Nov-17 01:00N 06°28' W 092°10'0 0.0 -0.0 27.6
2017-Nov-17 00:00N 06°28' W 092°10'1 1.2 -0.0 27.6
2017-Nov-16 23:30N 06°28' W 092°11'0 0.0 -0.0 27.6
2017-Nov-16 23:00N 06°28' W 092°11'1 1.2 -0.0 27.6
2017-Nov-16 22:30N 06°28' W 092°11'1 0.9 -0.0 27.6
2017-Nov-16 21:00N 06°28' W 092°13'1 0.8 -0.0 27.6
2017-Nov-16 20:00N 06°29' W 092°13'4 1.1 -0.0 27.6
2017-Nov-16 16:00N 06°29' W 092°17'1 1.3 -0.0 27.6
2017-Nov-16 15:00N 06°30' W 092°19'1 1.7 -0.0 27.6
2017-Nov-16 14:30N 06°31' W 092°19'1 1.7 -0.0 27.6
2017-Nov-16 14:00N 06°31' W 092°20'1 1.2 -0.0 27.5
2017-Nov-16 13:30N 06°31' W 092°20'1 1.7 -0.0 27.5
2017-Nov-16 13:00N 06°32' W 092°21'0 0.0 -0.0 27.6
2017-Nov-16 12:30N 06°32' W 092°21'2 1.7 -0.0 27.6
2017-Nov-16 11:30N 06°33' W 092°22'2 1.4 -0.0 27.6
2017-Nov-16 10:00N 06°34' W 092°24'3 1.1 -0.0 27.6
2017-Nov-16 07:00N 06°35' W 092°27'4 1.3 -0.0 27.6
2017-Nov-16 04:00N 06°38' W 092°30'1 1.2 -0.0 27.7
2017-Nov-16 03:30N 06°38' W 092°31'1 1.3 -0.0 27.7
2017-Nov-16 02:30N 06°38' W 092°32'2 1.7 -0.0 27.7
2017-Nov-16 01:30N 06°40' W 092°33'1 1.7 -0.0 27.7
2017-Nov-16 01:00N 06°40' W 092°34'3 1.5 -0.0 27.7
2017-Nov-15 23:00N 06°42' W 092°36'1 1.3 -0.0 27.7
2017-Nov-15 22:00N 06°43' W 092°37'2 1.7 -0.0 27.8
2017-Nov-15 21:00N 06°44' W 092°38'1 1.3 -0.0 27.8
2017-Nov-15 20:00N 06°44' W 092°40'6 1.8 -0.0 27.8
2017-Nov-15 16:30N 06°48' W 092°45'1 1.3 -0.0 27.8
2017-Nov-15 15:30N 06°49' W 092°46'2 1.9 -0.0 27.8
2017-Nov-15 14:30N 06°49' W 092°48'2 1.4 -0.0 27.8
2017-Nov-15 13:00N 06°50' W 092°50'1 1.3 -0.0 27.8
2017-Nov-15 12:00N 06°51' W 092°51'1 1.3 -0.0 27.8
2017-Nov-15 11:00N 06°52' W 092°52'1 1.7 -0.0 27.8
2017-Nov-15 10:30N 06°52' W 092°53'1 1.7 -0.0 27.8
2017-Nov-15 10:00N 06°53' W 092°53'2 1.4 -0.0 27.9
2017-Nov-15 08:30N 06°54' W 092°55'3 1.7 -0.0 27.9
2017-Nov-15 07:00N 06°56' W 092°57'4 1.7 -0.0 27.9
2017-Nov-15 04:30N 06°58' W 093°01'2 1.9 -0.0 27.9
2017-Nov-15 03:30N 06°59' W 093°02'2 2.2 -0.0 27.9
2017-Nov-15 02:30N 07°00' W 093°04'1 2.4 -0.0 27.9
2017-Nov-15 02:00N 07°00' W 093°05'2 1.7 -0.0 27.9
2017-Nov-15 01:00N 07°01' W 093°07'1 1.2 -0.0 27.9
2017-Nov-15 00:30N 07°01' W 093°07'1 2.7 -0.0 27.9
2017-Nov-15 00:00N 07°02' W 093°08'1 1.7 -0.0 27.9
2017-Nov-14 23:30N 07°02' W 093°09'1 1.2 -0.0 27.9
2017-Nov-14 23:00N 07°02' W 093°10'2 2.2 -0.0 27.9
2017-Nov-14 22:00N 07°04' W 093°11'1 1.2 -0.0 27.9
2017-Nov-14 21:30N 07°04' W 093°12'8 1.6 -0.0 27.9
2017-Nov-14 16:30N 07°07' W 093°19'1 1.3 -0.0 27.8
2017-Nov-14 15:30N 07°08' W 093°20'1 1.7 -0.0 27.8
2017-Nov-14 15:00N 07°08' W 093°21'1 1.3 -0.0 27.8
2017-Nov-14 14:00N 07°09' W 093°22'1 1.3 -0.0 27.8
2017-Nov-14 13:00N 07°10' W 093°23'1 1.7 -0.0 27.9
2017-Nov-14 12:30N 07°10' W 093°24'1 1.3 -0.0 27.9
2017-Nov-14 11:30N 07°11' W 093°25'1 1.7 -0.0 27.9
2017-Nov-14 11:00N 07°11' W 093°26'2 1.9 -0.0 27.9
2017-Nov-14 10:00N 07°12' W 093°28'2 1.7 -0.0 27.9
2017-Nov-14 09:00N 07°13' W 093°29'5 1.3 -0.0 27.9
2017-Nov-14 05:00N 07°16' W 093°33'2 1.9 -0.0 27.9
2017-Nov-14 04:00N 07°17' W 093°35'1 1.3 -0.0 27.9
2017-Nov-14 03:00N 07°17' W 093°36'1 1.2 -0.0 27.9
2017-Nov-14 02:30N 07°17' W 093°37'1 1.7 -0.0 27.9
2017-Nov-14 02:00N 07°18' W 093°37'2 1.8 -0.0 28.0
2017-Nov-14 01:00N 07°18' W 093°39'1 1.7 -0.0 27.9
2017-Nov-14 00:30N 07°19' W 093°40'1 1.2 -0.0 27.9
2017-Nov-14 00:00N 07°19' W 093°40'1 1.3 -0.0 28.0
2017-Nov-13 23:00N 07°19' W 093°41'2 1.1 -0.0 27.9
2017-Nov-13 21:30N 07°20' W 093°43'2 1.1 -0.0 28.0
2017-Nov-13 20:00N 07°22' W 093°44'1 1.3 -0.0 28.0
2017-Nov-13 19:00N 07°22' W 093°45'5 1.5 -0.0 28.0
2017-Nov-13 16:00N 07°24' W 093°49'2 1.1 -0.0 27.9
2017-Nov-13 14:00N 07°25' W 093°51'1 1.7 -0.0 27.9
2017-Nov-13 13:30N 07°26' W 093°52'1 1.2 -0.0 27.9
2017-Nov-13 13:00N 07°26' W 093°52'2 1.1 -0.0 27.9
2017-Nov-13 11:30N 07°27' W 093°53'2 1.7 -0.0 27.9
2017-Nov-13 10:30N 07°28' W 093°55'1 0.8 -0.0 28.0
2017-Nov-13 09:30N 07°29' W 093°55'1 1.3 -0.0 28.0
2017-Nov-13 08:30N 07°29' W 093°56'5 1.3 -0.0 28.0
2017-Nov-13 05:00N 07°33' W 093°59'1 1.2 -0.0 28.1
2017-Nov-13 04:30N 07°33' W 094°00'1 1.7 -0.0 28.1
2017-Nov-13 04:00N 07°34' W 094°01'1 1.7 -0.0 28.2
2017-Nov-13 03:30N 07°34' W 094°01'1 1.3 -0.0 28.2
2017-Nov-13 02:30N 07°35' W 094°02'   -0.0 28.2

Dump ship's entire track history